Airfield :
LOGIN :

Register | Disclaimer

   EN    FR    IT 

 










Legend :    VFR   Marginal VFR   IFR   Intensive IFR   Very Intensive IFR
Visi :
Ceiling :
>= 8 km
>= 3000ft
5 to 8 km
1000 to 3000 ft
1500m to 5 km
500 to 1000 ft
800 to 1500m
200 to 500 ft
< 800m
< 200 ft
Symbols :   Thunderstorms  Fog  Heavy snow  Heavy precipitations  Wind > 20 kt
SIGMETs :     Misc.  Thunderstorms  Icing  Turbulence  Mountain Waves  Volcanic Ashes






- Airport Elevation : 588 ft
- IATA code : DME


UUDD - Domodedovo International

CURRENT METAR :
  • 070930Z 25004MPS 180V320 CAVOK 07/M11 Q1033 R32L/CLRD60 NOSIG

EXPIRED METARs :
  • 070900Z 26004MPS 190V310 CAVOK 05/M13 Q1034 R32L/CLRD60 NOSIG
  • 070830Z 26005MPS 200V290 CAVOK 05/M15 Q1034 R32L/CLRD60 NOSIG
  • 070800Z 23004MPS 180V270 CAVOK 05/M14 Q1035 R32L/CLRD60 NOSIG
  • 070730Z 26004MPS 230V300 CAVOK 04/M14 Q1035 R32L/CLRD60 NOSIG

TAF TAF UUDD
Valid from the 07 at 09:00 until the 08 at 15:00 UTC


070756Z 0709/0815 24006MPS 9999 SCT030 TX12/0812Z TN02/0803Z
TEMPO 0721/0805 24009G15MPS
BECMG 0805/0807 32008G15MPS
TEMPO 0805/0815 -SHRA FEW007 BKN020CB



MET'MAP, your aeronautical weather chart ! - Copyright ORBIFLY December 2007 - Disclaimer

ORBIFLY MET'MAP TEAM :

Programming & Development : Alexandra Zaïnal
Concept & original design : Baudouin d'Aumeries
Assistance for programming : Marc-Olivier Méhu
Technical & hardware support : Manuel Goepfert

Contact : metmap@orbifly.com




SOURCES & CREDITS :

   NOAA